sensor_id;sensor_type;location;lat;lon;timestamp;temperature;humidity
19522;DHT22;9905;52.126;5.596;2023-02-12T00:02:25;8.00;99.90
19522;DHT22;9905;52.126;5.596;2023-02-12T00:04:52;7.90;99.90
19522;DHT22;9905;52.126;5.596;2023-02-12T00:07:18;7.90;99.90
19522;DHT22;9905;52.126;5.596;2023-02-12T00:09:45;7.90;99.90
19522;DHT22;9905;52.126;5.596;2023-02-12T00:12:12;7.80;99.90
19522;DHT22;9905;52.126;5.596;2023-02-12T00:14:38;7.80;99.90
19522;DHT22;9905;52.126;5.596;2023-02-12T00:17:06;7.80;99.90
19522;DHT22;9905;52.126;5.596;2023-02-12T00:19:33;7.80;99.90
19522;DHT22;9905;52.126;5.596;2023-02-12T00:22:00;7.80;99.90
19522;DHT22;9905;52.126;5.596;2023-02-12T00:24:27;7.70;99.90
19522;DHT22;9905;52.126;5.596;2023-02-12T00:26:53;7.80;99.90
19522;DHT22;9905;52.126;5.596;2023-02-12T00:29:20;7.70;99.90
19522;DHT22;9905;52.126;5.596;2023-02-12T00:31:47;7.70;99.90
19522;DHT22;9905;52.126;5.596;2023-02-12T00:34:15;7.60;99.90
19522;DHT22;9905;52.126;5.596;2023-02-12T00:36:42;7.60;99.90
19522;DHT22;9905;52.126;5.596;2023-02-12T00:39:08;7.60;99.90
19522;DHT22;9905;52.126;5.596;2023-02-12T00:41:36;7.60;99.90
19522;DHT22;9905;52.126;5.596;2023-02-12T00:44:03;7.60;99.90
19522;DHT22;9905;52.126;5.596;2023-02-12T00:46:30;7.60;99.90
19522;DHT22;9905;52.126;5.596;2023-02-12T00:48:56;7.60;99.90
19522;DHT22;9905;52.126;5.596;2023-02-12T00:51:24;7.60;99.90
19522;DHT22;9905;52.126;5.596;2023-02-12T00:53:51;7.50;99.90
19522;DHT22;9905;52.126;5.596;2023-02-12T00:56:18;7.50;99.90
19522;DHT22;9905;52.126;5.596;2023-02-12T00:58:45;7.50;99.90
19522;DHT22;9905;52.126;5.596;2023-02-12T01:01:11;7.50;99.90
19522;DHT22;9905;52.126;5.596;2023-02-12T01:03:38;7.40;99.90
19522;DHT22;9905;52.126;5.596;2023-02-12T01:06:05;7.40;99.90
19522;DHT22;9905;52.126;5.596;2023-02-12T01:08:34;7.40;99.90
19522;DHT22;9905;52.126;5.596;2023-02-12T01:11:02;7.40;99.90
19522;DHT22;9905;52.126;5.596;2023-02-12T01:13:30;7.40;99.90
19522;DHT22;9905;52.126;5.596;2023-02-12T01:16:02;7.30;99.90
19522;DHT22;9905;52.126;5.596;2023-02-12T01:18:29;7.30;99.90
19522;DHT22;9905;52.126;5.596;2023-02-12T01:20:56;7.30;99.90
19522;DHT22;9905;52.126;5.596;2023-02-12T01:23:23;7.40;99.90
19522;DHT22;9905;52.126;5.596;2023-02-12T01:25:52;7.30;99.90
19522;DHT22;9905;52.126;5.596;2023-02-12T01:28:18;7.30;99.90
19522;DHT22;9905;52.126;5.596;2023-02-12T01:30:45;7.30;99.90
19522;DHT22;9905;52.126;5.596;2023-02-12T01:33:12;7.30;99.90
19522;DHT22;9905;52.126;5.596;2023-02-12T01:35:39;7.30;99.90
19522;DHT22;9905;52.126;5.596;2023-02-12T01:38:05;7.30;99.90
19522;DHT22;9905;52.126;5.596;2023-02-12T01:40:32;7.30;99.90
19522;DHT22;9905;52.126;5.596;2023-02-12T01:43:01;7.20;99.90
19522;DHT22;9905;52.126;5.596;2023-02-12T01:45:46;7.20;99.90
19522;DHT22;9905;52.126;5.596;2023-02-12T01:48:14;7.20;99.90
19522;DHT22;9905;52.126;5.596;2023-02-12T01:50:43;7.20;99.90
19522;DHT22;9905;52.126;5.596;2023-02-12T01:53:12;7.10;99.90
19522;DHT22;9905;52.126;5.596;2023-02-12T01:55:48;7.10;99.90
19522;DHT22;9905;52.126;5.596;2023-02-12T01:58:18;7.10;99.90
19522;DHT22;9905;52.126;5.596;2023-02-12T02:00:45;7.00;99.90
19522;DHT22;9905;52.126;5.596;2023-02-12T02:03:12;7.00;99.90
19522;DHT22;9905;52.126;5.596;2023-02-12T02:05:43;6.90;99.90
19522;DHT22;9905;52.126;5.596;2023-02-12T02:08:12;6.90;99.90
19522;DHT22;9905;52.126;5.596;2023-02-12T02:10:39;6.80;99.90
19522;DHT22;9905;52.126;5.596;2023-02-12T02:13:06;6.80;99.90
19522;DHT22;9905;52.126;5.596;2023-02-12T02:15:55;6.80;99.90
19522;DHT22;9905;52.126;5.596;2023-02-12T02:18:29;6.80;99.90
19522;DHT22;9905;52.126;5.596;2023-02-12T02:21:31;6.70;99.90
19522;DHT22;9905;52.126;5.596;2023-02-12T02:27:34;6.70;99.90
19522;DHT22;9905;52.126;5.596;2023-02-12T02:30:23;6.60;99.90
19522;DHT22;9905;52.126;5.596;2023-02-12T02:32:59;6.60;99.90
19522;DHT22;9905;52.126;5.596;2023-02-12T02:35:37;6.60;99.90
19522;DHT22;9905;52.126;5.596;2023-02-12T02:38:13;6.50;99.90
19522;DHT22;9905;52.126;5.596;2023-02-12T02:40:49;6.50;99.90
19522;DHT22;9905;52.126;5.596;2023-02-12T02:43:21;6.50;99.90
19522;DHT22;9905;52.126;5.596;2023-02-12T02:45:52;6.50;99.90
19522;DHT22;9905;52.126;5.596;2023-02-12T02:48:23;6.40;99.90
19522;DHT22;9905;52.126;5.596;2023-02-12T02:50:55;6.40;99.90
19522;DHT22;9905;52.126;5.596;2023-02-12T02:53:26;6.40;99.90
19522;DHT22;9905;52.126;5.596;2023-02-12T02:55:58;6.40;99.90
19522;DHT22;9905;52.126;5.596;2023-02-12T02:58:29;6.40;99.90
19522;DHT22;9905;52.126;5.596;2023-02-12T03:01:02;6.30;99.90
19522;DHT22;9905;52.126;5.596;2023-02-12T03:03:33;6.30;99.90
19522;DHT22;9905;52.126;5.596;2023-02-12T03:06:03;6.30;99.90
19522;DHT22;9905;52.126;5.596;2023-02-12T03:08:35;6.30;99.90
19522;DHT22;9905;52.126;5.596;2023-02-12T03:11:09;6.30;99.90
19522;DHT22;9905;52.126;5.596;2023-02-12T03:13:40;6.30;99.90
19522;DHT22;9905;52.126;5.596;2023-02-12T03:16:15;6.30;99.90
19522;DHT22;9905;52.126;5.596;2023-02-12T03:18:47;6.30;99.90
19522;DHT22;9905;52.126;5.596;2023-02-12T03:21:24;6.20;99.90
19522;DHT22;9905;52.126;5.596;2023-02-12T03:23:57;6.20;99.90
19522;DHT22;9905;52.126;5.596;2023-02-12T03:26:34;6.20;99.90
19522;DHT22;9905;52.126;5.596;2023-02-12T03:29:03;6.20;99.90
19522;DHT22;9905;52.126;5.596;2023-02-12T03:31:36;6.10;99.90
19522;DHT22;9905;52.126;5.596;2023-02-12T03:34:08;6.10;99.90
19522;DHT22;9905;52.126;5.596;2023-02-12T03:36:43;6.10;99.90
19522;DHT22;9905;52.126;5.596;2023-02-12T03:39:15;6.10;99.90
19522;DHT22;9905;52.126;5.596;2023-02-12T03:41:46;6.10;99.90
19522;DHT22;9905;52.126;5.596;2023-02-12T03:44:21;6.10;99.90
19522;DHT22;9905;52.126;5.596;2023-02-12T03:46:58;6.10;99.90
19522;DHT22;9905;52.126;5.596;2023-02-12T03:49:28;6.10;99.90
19522;DHT22;9905;52.126;5.596;2023-02-12T03:51:57;6.10;99.90
19522;DHT22;9905;52.126;5.596;2023-02-12T03:54:25;6.10;99.90
19522;DHT22;9905;52.126;5.596;2023-02-12T03:56:55;6.10;99.90
19522;DHT22;9905;52.126;5.596;2023-02-12T03:59:24;6.10;99.90
19522;DHT22;9905;52.126;5.596;2023-02-12T04:01:55;6.10;99.90
19522;DHT22;9905;52.126;5.596;2023-02-12T04:04:23;6.10;99.90
19522;DHT22;9905;52.126;5.596;2023-02-12T04:06:52;6.20;99.90
19522;DHT22;9905;52.126;5.596;2023-02-12T04:09:21;6.20;99.90
19522;DHT22;9905;52.126;5.596;2023-02-12T04:12:00;6.20;99.90
19522;DHT22;9905;52.126;5.596;2023-02-12T04:14:36;6.20;99.90
19522;DHT22;9905;52.126;5.596;2023-02-12T04:17:17;6.20;99.90
19522;DHT22;9905;52.126;5.596;2023-02-12T04:19:54;6.20;99.90
19522;DHT22;9905;52.126;5.596;2023-02-12T04:22:33;6.30;99.90
19522;DHT22;9905;52.126;5.596;2023-02-12T04:25:09;6.30;99.90
19522;DHT22;9905;52.126;5.596;2023-02-12T04:27:43;6.20;99.90
19522;DHT22;9905;52.126;5.596;2023-02-12T04:30:20;6.20;99.90
19522;DHT22;9905;52.126;5.596;2023-02-12T04:32:52;6.20;99.90
19522;DHT22;9905;52.126;5.596;2023-02-12T04:35:25;6.20;99.90
19522;DHT22;9905;52.126;5.596;2023-02-12T04:37:54;6.30;99.90
19522;DHT22;9905;52.126;5.596;2023-02-12T04:40:23;6.30;99.90
19522;DHT22;9905;52.126;5.596;2023-02-12T04:42:51;6.30;99.90
19522;DHT22;9905;52.126;5.596;2023-02-12T04:45:21;6.30;99.90
19522;DHT22;9905;52.126;5.596;2023-02-12T04:47:50;6.30;99.90
19522;DHT22;9905;52.126;5.596;2023-02-12T04:50:18;6.30;99.90
19522;DHT22;9905;52.126;5.596;2023-02-12T04:52:45;6.30;99.90
19522;DHT22;9905;52.126;5.596;2023-02-12T04:55:12;6.30;99.90
19522;DHT22;9905;52.126;5.596;2023-02-12T04:57:39;6.30;99.90
19522;DHT22;9905;52.126;5.596;2023-02-12T05:00:11;6.30;99.90
19522;DHT22;9905;52.126;5.596;2023-02-12T05:02:38;6.30;99.90
19522;DHT22;9905;52.126;5.596;2023-02-12T05:05:07;6.30;99.90
19522;DHT22;9905;52.126;5.596;2023-02-12T05:07:33;6.30;99.90
19522;DHT22;9905;52.126;5.596;2023-02-12T05:10:00;6.40;99.90
19522;DHT22;9905;52.126;5.596;2023-02-12T05:12:27;6.40;99.90
19522;DHT22;9905;52.126;5.596;2023-02-12T05:14:54;6.40;99.90
19522;DHT22;9905;52.126;5.596;2023-02-12T05:17:21;6.40;99.90
19522;DHT22;9905;52.126;5.596;2023-02-12T05:19:48;6.50;99.90
19522;DHT22;9905;52.126;5.596;2023-02-12T05:22:16;6.50;99.90
19522;DHT22;9905;52.126;5.596;2023-02-12T05:24:43;6.50;99.90
19522;DHT22;9905;52.126;5.596;2023-02-12T05:27:10;6.50;99.90
19522;DHT22;9905;52.126;5.596;2023-02-12T05:29:37;6.50;99.90
19522;DHT22;9905;52.126;5.596;2023-02-12T05:32:04;6.50;99.90
19522;DHT22;9905;52.126;5.596;2023-02-12T05:34:31;6.50;99.90
19522;DHT22;9905;52.126;5.596;2023-02-12T05:36:58;6.50;99.90
19522;DHT22;9905;52.126;5.596;2023-02-12T05:39:26;6.50;99.90
19522;DHT22;9905;52.126;5.596;2023-02-12T05:41:52;6.50;99.90
19522;DHT22;9905;52.126;5.596;2023-02-12T05:44:19;6.50;99.90
19522;DHT22;9905;52.126;5.596;2023-02-12T05:46:46;6.50;99.90
19522;DHT22;9905;52.126;5.596;2023-02-12T05:49:13;6.50;99.90
19522;DHT22;9905;52.126;5.596;2023-02-12T05:51:40;6.50;99.90
19522;DHT22;9905;52.126;5.596;2023-02-12T05:54:07;6.50;99.90
19522;DHT22;9905;52.126;5.596;2023-02-12T05:56:36;6.50;99.90
19522;DHT22;9905;52.126;5.596;2023-02-12T05:59:06;6.50;99.90
19522;DHT22;9905;52.126;5.596;2023-02-12T06:01:34;6.50;99.90
19522;DHT22;9905;52.126;5.596;2023-02-12T06:04:04;6.50;99.90
19522;DHT22;9905;52.126;5.596;2023-02-12T06:06:31;6.50;99.90
19522;DHT22;9905;52.126;5.596;2023-02-12T06:08:58;6.50;99.90
19522;DHT22;9905;52.126;5.596;2023-02-12T06:11:26;6.60;99.90
19522;DHT22;9905;52.126;5.596;2023-02-12T06:13:54;6.60;99.90
19522;DHT22;9905;52.126;5.596;2023-02-12T06:16:22;6.60;99.90
19522;DHT22;9905;52.126;5.596;2023-02-12T06:18:50;6.60;99.90
19522;DHT22;9905;52.126;5.596;2023-02-12T06:21:19;6.60;99.90
19522;DHT22;9905;52.126;5.596;2023-02-12T06:23:46;6.60;99.90
19522;DHT22;9905;52.126;5.596;2023-02-12T06:26:13;6.60;99.90
19522;DHT22;9905;52.126;5.596;2023-02-12T06:28:40;6.70;99.90
19522;DHT22;9905;52.126;5.596;2023-02-12T06:31:17;6.60;99.90
19522;DHT22;9905;52.126;5.596;2023-02-12T06:33:44;6.60;99.90
19522;DHT22;9905;52.126;5.596;2023-02-12T06:36:11;6.70;99.90
19522;DHT22;9905;52.126;5.596;2023-02-12T06:38:37;6.70;99.90
19522;DHT22;9905;52.126;5.596;2023-02-12T06:41:04;6.70;99.90
19522;DHT22;9905;52.126;5.596;2023-02-12T06:43:31;6.70;99.90
19522;DHT22;9905;52.126;5.596;2023-02-12T06:46:00;6.80;99.90
19522;DHT22;9905;52.126;5.596;2023-02-12T06:48:28;6.80;99.90
19522;DHT22;9905;52.126;5.596;2023-02-12T06:51:01;6.80;99.90
19522;DHT22;9905;52.126;5.596;2023-02-12T06:53:28;6.80;99.90
19522;DHT22;9905;52.126;5.596;2023-02-12T06:55:55;6.80;99.90
19522;DHT22;9905;52.126;5.596;2023-02-12T06:58:22;6.80;99.90
19522;DHT22;9905;52.126;5.596;2023-02-12T07:00:49;6.80;99.90
19522;DHT22;9905;52.126;5.596;2023-02-12T07:03:15;6.80;99.90
19522;DHT22;9905;52.126;5.596;2023-02-12T07:05:43;6.80;99.90
19522;DHT22;9905;52.126;5.596;2023-02-12T07:08:10;6.80;99.90
19522;DHT22;9905;52.126;5.596;2023-02-12T07:10:37;6.90;99.90
19522;DHT22;9905;52.126;5.596;2023-02-12T07:13:04;6.90;99.90
19522;DHT22;9905;52.126;5.596;2023-02-12T07:15:31;6.90;99.90
19522;DHT22;9905;52.126;5.596;2023-02-12T07:17:57;6.90;99.90
19522;DHT22;9905;52.126;5.596;2023-02-12T07:20:24;7.00;99.90
19522;DHT22;9905;52.126;5.596;2023-02-12T07:22:52;7.00;99.90
19522;DHT22;9905;52.126;5.596;2023-02-12T07:25:19;7.00;99.90
19522;DHT22;9905;52.126;5.596;2023-02-12T07:27:46;7.00;99.90
19522;DHT22;9905;52.126;5.596;2023-02-12T07:30:13;7.00;99.90
19522;DHT22;9905;52.126;5.596;2023-02-12T07:32:40;7.00;99.90
19522;DHT22;9905;52.126;5.596;2023-02-12T07:35:07;7.00;99.90
19522;DHT22;9905;52.126;5.596;2023-02-12T07:37:34;7.00;99.90
19522;DHT22;9905;52.126;5.596;2023-02-12T07:40:02;7.00;99.90
19522;DHT22;9905;52.126;5.596;2023-02-12T07:42:29;7.10;99.90
19522;DHT22;9905;52.126;5.596;2023-02-12T07:44:56;7.10;99.90
19522;DHT22;9905;52.126;5.596;2023-02-12T07:47:22;7.10;99.90
19522;DHT22;9905;52.126;5.596;2023-02-12T07:49:49;7.10;99.90
19522;DHT22;9905;52.126;5.596;2023-02-12T07:52:16;7.10;99.90
19522;DHT22;9905;52.126;5.596;2023-02-12T07:54:42;7.20;99.90
19522;DHT22;9905;52.126;5.596;2023-02-12T07:57:11;7.20;99.90
19522;DHT22;9905;52.126;5.596;2023-02-12T07:59:37;7.20;99.90
19522;DHT22;9905;52.126;5.596;2023-02-12T08:02:04;7.20;99.90
19522;DHT22;9905;52.126;5.596;2023-02-12T08:04:31;7.20;99.90
19522;DHT22;9905;52.126;5.596;2023-02-12T08:06:58;7.20;99.90
19522;DHT22;9905;52.126;5.596;2023-02-12T08:09:26;7.30;99.90
19522;DHT22;9905;52.126;5.596;2023-02-12T08:11:55;7.30;99.90
19522;DHT22;9905;52.126;5.596;2023-02-12T08:14:23;7.30;99.90
19522;DHT22;9905;52.126;5.596;2023-02-12T08:16:51;7.30;99.90
19522;DHT22;9905;52.126;5.596;2023-02-12T08:19:18;7.30;99.90
19522;DHT22;9905;52.126;5.596;2023-02-12T08:21:47;7.40;99.90
19522;DHT22;9905;52.126;5.596;2023-02-12T08:24:14;7.40;99.90
19522;DHT22;9905;52.126;5.596;2023-02-12T08:26:41;7.60;99.90
19522;DHT22;9905;52.126;5.596;2023-02-12T08:29:10;7.50;99.90
19522;DHT22;9905;52.126;5.596;2023-02-12T08:31:41;7.50;99.90
19522;DHT22;9905;52.126;5.596;2023-02-12T08:34:15;7.50;99.90
19522;DHT22;9905;52.126;5.596;2023-02-12T08:36:43;7.50;99.90
19522;DHT22;9905;52.126;5.596;2023-02-12T08:39:10;7.50;99.90
19522;DHT22;9905;52.126;5.596;2023-02-12T08:41:37;7.50;99.90
19522;DHT22;9905;52.126;5.596;2023-02-12T08:44:04;7.60;99.90
19522;DHT22;9905;52.126;5.596;2023-02-12T08:46:33;7.60;99.90
19522;DHT22;9905;52.126;5.596;2023-02-12T08:49:04;7.80;99.90
19522;DHT22;9905;52.126;5.596;2023-02-12T08:51:33;7.70;99.90
19522;DHT22;9905;52.126;5.596;2023-02-12T08:54:03;7.70;99.90
19522;DHT22;9905;52.126;5.596;2023-02-12T08:56:31;7.80;99.90
19522;DHT22;9905;52.126;5.596;2023-02-12T08:58:59;7.70;99.90
19522;DHT22;9905;52.126;5.596;2023-02-12T09:01:28;7.70;99.90
19522;DHT22;9905;52.126;5.596;2023-02-12T09:03:55;7.70;99.90
19522;DHT22;9905;52.126;5.596;2023-02-12T09:06:24;7.70;99.90
19522;DHT22;9905;52.126;5.596;2023-02-12T09:08:51;7.70;99.90
19522;DHT22;9905;52.126;5.596;2023-02-12T09:11:20;7.80;99.90
19522;DHT22;9905;52.126;5.596;2023-02-12T09:13:49;7.90;99.90
19522;DHT22;9905;52.126;5.596;2023-02-12T09:16:16;7.90;99.90
19522;DHT22;9905;52.126;5.596;2023-02-12T09:18:42;7.90;99.90
19522;DHT22;9905;52.126;5.596;2023-02-12T09:21:11;8.00;99.90
19522;DHT22;9905;52.126;5.596;2023-02-12T09:23:40;8.00;99.90
19522;DHT22;9905;52.126;5.596;2023-02-12T09:26:08;8.00;99.90
19522;DHT22;9905;52.126;5.596;2023-02-12T09:28:35;7.90;99.90
19522;DHT22;9905;52.126;5.596;2023-02-12T09:31:04;7.90;99.90
19522;DHT22;9905;52.126;5.596;2023-02-12T09:33:31;7.90;99.90
19522;DHT22;9905;52.126;5.596;2023-02-12T09:36:00;7.90;99.90
19522;DHT22;9905;52.126;5.596;2023-02-12T09:38:28;7.90;99.90
19522;DHT22;9905;52.126;5.596;2023-02-12T09:41:08;7.90;99.90
19522;DHT22;9905;52.126;5.596;2023-02-12T09:43:43;8.10;99.90
19522;DHT22;9905;52.126;5.596;2023-02-12T09:46:15;8.10;99.90
19522;DHT22;9905;52.126;5.596;2023-02-12T09:48:53;8.10;99.90
19522;DHT22;9905;52.126;5.596;2023-02-12T09:51:22;8.10;99.90
19522;DHT22;9905;52.126;5.596;2023-02-12T09:53:58;8.20;99.90
19522;DHT22;9905;52.126;5.596;2023-02-12T09:56:27;8.20;99.90
19522;DHT22;9905;52.126;5.596;2023-02-12T09:58:58;8.20;99.90
19522;DHT22;9905;52.126;5.596;2023-02-12T10:01:27;8.20;99.90
19522;DHT22;9905;52.126;5.596;2023-02-12T10:03:54;8.30;99.90
19522;DHT22;9905;52.126;5.596;2023-02-12T10:06:24;8.30;99.90
19522;DHT22;9905;52.126;5.596;2023-02-12T10:09:09;8.30;99.90
19522;DHT22;9905;52.126;5.596;2023-02-12T10:11:52;8.30;99.90
19522;DHT22;9905;52.126;5.596;2023-02-12T10:14:54;8.40;99.90
19522;DHT22;9905;52.126;5.596;2023-02-12T10:17:32;8.40;99.90
19522;DHT22;9905;52.126;5.596;2023-02-12T10:20:22;8.40;99.90
19522;DHT22;9905;52.126;5.596;2023-02-12T10:23:02;8.50;99.90
19522;DHT22;9905;52.126;5.596;2023-02-12T10:25:43;8.50;99.90
19522;DHT22;9905;52.126;5.596;2023-02-12T10:28:16;8.50;99.90
19522;DHT22;9905;52.126;5.596;2023-02-12T10:30:50;8.60;99.90
19522;DHT22;9905;52.126;5.596;2023-02-12T10:33:22;8.60;99.90
19522;DHT22;9905;52.126;5.596;2023-02-12T10:35:54;8.60;99.90
19522;DHT22;9905;52.126;5.596;2023-02-12T10:38:26;8.60;99.90
19522;DHT22;9905;52.126;5.596;2023-02-12T10:40:54;8.60;99.90
19522;DHT22;9905;52.126;5.596;2023-02-12T10:43:24;8.70;99.90
19522;DHT22;9905;52.126;5.596;2023-02-12T10:45:51;8.70;99.90
19522;DHT22;9905;52.126;5.596;2023-02-12T10:48:20;8.70;99.90
19522;DHT22;9905;52.126;5.596;2023-02-12T10:51:01;8.70;99.90
19522;DHT22;9905;52.126;5.596;2023-02-12T10:53:31;8.70;99.90
19522;DHT22;9905;52.126;5.596;2023-02-12T10:56:17;8.70;99.90
19522;DHT22;9905;52.126;5.596;2023-02-12T10:58:54;8.60;99.90
19522;DHT22;9905;52.126;5.596;2023-02-12T11:01:24;8.60;99.90
19522;DHT22;9905;52.126;5.596;2023-02-12T11:03:52;8.60;99.90
19522;DHT22;9905;52.126;5.596;2023-02-12T11:06:20;8.60;99.90
19522;DHT22;9905;52.126;5.596;2023-02-12T11:08:48;8.60;99.90
19522;DHT22;9905;52.126;5.596;2023-02-12T11:11:19;8.60;99.90
19522;DHT22;9905;52.126;5.596;2023-02-12T11:13:52;8.70;99.90
19522;DHT22;9905;52.126;5.596;2023-02-12T11:16:28;8.80;99.90
19522;DHT22;9905;52.126;5.596;2023-02-12T11:19:00;8.80;99.90
19522;DHT22;9905;52.126;5.596;2023-02-12T11:21:29;8.90;99.90
19522;DHT22;9905;52.126;5.596;2023-02-12T11:23:56;8.90;99.90
19522;DHT22;9905;52.126;5.596;2023-02-12T11:26:26;9.00;99.90
19522;DHT22;9905;52.126;5.596;2023-02-12T11:28:54;8.90;99.90
19522;DHT22;9905;52.126;5.596;2023-02-12T11:31:23;9.00;99.90
19522;DHT22;9905;52.126;5.596;2023-02-12T11:34:07;9.00;99.90
19522;DHT22;9905;52.126;5.596;2023-02-12T11:36:35;9.00;99.90
19522;DHT22;9905;52.126;5.596;2023-02-12T11:39:03;9.00;99.90
19522;DHT22;9905;52.126;5.596;2023-02-12T11:41:34;9.00;99.90
19522;DHT22;9905;52.126;5.596;2023-02-12T11:44:08;9.10;99.90
19522;DHT22;9905;52.126;5.596;2023-02-12T11:46:35;9.10;99.90
19522;DHT22;9905;52.126;5.596;2023-02-12T11:49:04;9.10;99.90
19522;DHT22;9905;52.126;5.596;2023-02-12T11:51:35;9.10;99.90
19522;DHT22;9905;52.126;5.596;2023-02-12T11:54:03;9.10;99.90
19522;DHT22;9905;52.126;5.596;2023-02-12T11:56:41;9.10;99.90
19522;DHT22;9905;52.126;5.596;2023-02-12T11:59:20;9.10;99.90
19522;DHT22;9905;52.126;5.596;2023-02-12T12:01:51;9.10;99.90
19522;DHT22;9905;52.126;5.596;2023-02-12T12:04:22;9.00;99.90
19522;DHT22;9905;52.126;5.596;2023-02-12T12:06:54;9.10;99.90
19522;DHT22;9905;52.126;5.596;2023-02-12T12:09:27;9.20;99.90
19522;DHT22;9905;52.126;5.596;2023-02-12T12:12:01;9.20;99.90
19522;DHT22;9905;52.126;5.596;2023-02-12T12:14:32;9.20;99.90
19522;DHT22;9905;52.126;5.596;2023-02-12T12:17:24;9.20;99.90
19522;DHT22;9905;52.126;5.596;2023-02-12T12:20:20;9.20;99.90
19522;DHT22;9905;52.126;5.596;2023-02-12T12:22:52;9.30;99.90
19522;DHT22;9905;52.126;5.596;2023-02-12T12:25:23;9.30;99.90
19522;DHT22;9905;52.126;5.596;2023-02-12T12:27:58;9.30;99.90
19522;DHT22;9905;52.126;5.596;2023-02-12T12:30:39;9.30;99.90
19522;DHT22;9905;52.126;5.596;2023-02-12T12:33:13;9.20;99.90
19522;DHT22;9905;52.126;5.596;2023-02-12T12:35:47;9.30;99.90
19522;DHT22;9905;52.126;5.596;2023-02-12T12:38:24;9.20;99.90
19522;DHT22;9905;52.126;5.596;2023-02-12T12:41:02;9.10;99.90
19522;DHT22;9905;52.126;5.596;2023-02-12T12:43:43;9.20;99.90
19522;DHT22;9905;52.126;5.596;2023-02-12T12:46:24;9.20;99.90
19522;DHT22;9905;52.126;5.596;2023-02-12T12:49:10;9.20;99.90
19522;DHT22;9905;52.126;5.596;2023-02-12T12:51:52;9.20;99.90
19522;DHT22;9905;52.126;5.596;2023-02-12T12:54:33;9.20;99.90
19522;DHT22;9905;52.126;5.596;2023-02-12T12:57:07;9.20;99.90
19522;DHT22;9905;52.126;5.596;2023-02-12T13:00:00;9.20;99.90
19522;DHT22;9905;52.126;5.596;2023-02-12T13:02:54;9.20;99.90
19522;DHT22;9905;52.126;5.596;2023-02-12T13:05:38;9.30;99.90
19522;DHT22;9905;52.126;5.596;2023-02-12T13:08:20;9.20;99.90
19522;DHT22;9905;52.126;5.596;2023-02-12T13:10:56;9.20;99.90
19522;DHT22;9905;52.126;5.596;2023-02-12T13:13:30;9.20;99.90
19522;DHT22;9905;52.126;5.596;2023-02-12T13:16:02;9.20;99.90
19522;DHT22;9905;52.126;5.596;2023-02-12T13:18:41;9.20;99.90
19522;DHT22;9905;52.126;5.596;2023-02-12T13:21:14;9.20;99.90
19522;DHT22;9905;52.126;5.596;2023-02-12T13:23:50;9.40;99.90
19522;DHT22;9905;52.126;5.596;2023-02-12T13:26:23;9.40;99.90
19522;DHT22;9905;52.126;5.596;2023-02-12T13:28:59;9.30;99.90
19522;DHT22;9905;52.126;5.596;2023-02-12T13:31:28;9.30;99.90
19522;DHT22;9905;52.126;5.596;2023-02-12T13:33:58;9.30;99.90
19522;DHT22;9905;52.126;5.596;2023-02-12T13:36:25;9.30;99.90
19522;DHT22;9905;52.126;5.596;2023-02-12T13:38:56;9.30;99.90
19522;DHT22;9905;52.126;5.596;2023-02-12T13:41:24;9.40;99.90
19522;DHT22;9905;52.126;5.596;2023-02-12T13:44:04;9.30;99.90
19522;DHT22;9905;52.126;5.596;2023-02-12T13:46:37;9.30;99.90
19522;DHT22;9905;52.126;5.596;2023-02-12T13:49:17;9.30;99.90
19522;DHT22;9905;52.126;5.596;2023-02-12T13:51:47;9.30;99.90
19522;DHT22;9905;52.126;5.596;2023-02-12T13:54:39;9.30;99.90
19522;DHT22;9905;52.126;5.596;2023-02-12T13:57:14;9.30;99.90
19522;DHT22;9905;52.126;5.596;2023-02-12T13:59:44;9.30;99.90
19522;DHT22;9905;52.126;5.596;2023-02-12T14:05:25;9.20;99.90
19522;DHT22;9905;52.126;5.596;2023-02-12T14:07:54;9.20;99.90
19522;DHT22;9905;52.126;5.596;2023-02-12T14:10:25;9.30;99.90
19522;DHT22;9905;52.126;5.596;2023-02-12T14:12:56;9.20;99.90
19522;DHT22;9905;52.126;5.596;2023-02-12T14:15:31;9.20;99.90
19522;DHT22;9905;52.126;5.596;2023-02-12T14:18:28;9.20;99.90
19522;DHT22;9905;52.126;5.596;2023-02-12T14:27:29;9.20;99.90
19522;DHT22;9905;52.126;5.596;2023-02-12T14:32:59;9.20;99.90
19522;DHT22;9905;52.126;5.596;2023-02-12T14:35:35;9.20;99.90
19522;DHT22;9905;52.126;5.596;2023-02-12T14:40:49;9.20;99.90
19522;DHT22;9905;52.126;5.596;2023-02-12T14:43:31;9.20;99.90
19522;DHT22;9905;52.126;5.596;2023-02-12T14:49:03;9.10;99.90
19522;DHT22;9905;52.126;5.596;2023-02-12T14:51:34;9.10;99.90
19522;DHT22;9905;52.126;5.596;2023-02-12T14:54:03;9.10;99.90
19522;DHT22;9905;52.126;5.596;2023-02-12T14:56:40;9.20;99.90
19522;DHT22;9905;52.126;5.596;2023-02-12T14:59:14;9.20;99.90
19522;DHT22;9905;52.126;5.596;2023-02-12T15:01:43;9.20;99.90
19522;DHT22;9905;52.126;5.596;2023-02-12T15:04:16;9.10;99.90
19522;DHT22;9905;52.126;5.596;2023-02-12T15:06:50;9.10;99.90
19522;DHT22;9905;52.126;5.596;2023-02-12T15:09:23;9.10;99.90
19522;DHT22;9905;52.126;5.596;2023-02-12T15:11:57;9.10;99.90
19522;DHT22;9905;52.126;5.596;2023-02-12T15:14:28;9.10;99.90
19522;DHT22;9905;52.126;5.596;2023-02-12T15:16:59;9.10;99.90
19522;DHT22;9905;52.126;5.596;2023-02-12T15:19:39;9.10;99.90
19522;DHT22;9905;52.126;5.596;2023-02-12T15:22:18;9.10;99.90
19522;DHT22;9905;52.126;5.596;2023-02-12T15:24:46;9.10;99.90
19522;DHT22;9905;52.126;5.596;2023-02-12T15:27:13;9.10;99.90
19522;DHT22;9905;52.126;5.596;2023-02-12T15:29:44;9.10;99.90
19522;DHT22;9905;52.126;5.596;2023-02-12T15:32:17;9.10;99.90
19522;DHT22;9905;52.126;5.596;2023-02-12T15:34:47;9.10;99.90
19522;DHT22;9905;52.126;5.596;2023-02-12T15:37:19;9.10;99.90
19522;DHT22;9905;52.126;5.596;2023-02-12T15:39:46;9.10;99.90
19522;DHT22;9905;52.126;5.596;2023-02-12T15:42:24;9.10;99.90
19522;DHT22;9905;52.126;5.596;2023-02-12T15:48:06;9.10;99.90
19522;DHT22;9905;52.126;5.596;2023-02-12T15:50:44;9.00;99.90
19522;DHT22;9905;52.126;5.596;2023-02-12T15:53:12;9.00;99.90
19522;DHT22;9905;52.126;5.596;2023-02-12T15:55:43;9.00;99.90
19522;DHT22;9905;52.126;5.596;2023-02-12T15:58:20;8.90;99.90
19522;DHT22;9905;52.126;5.596;2023-02-12T16:00:48;8.90;99.90
19522;DHT22;9905;52.126;5.596;2023-02-12T16:03:19;9.00;99.90
19522;DHT22;9905;52.126;5.596;2023-02-12T16:05:47;8.90;99.90
19522;DHT22;9905;52.126;5.596;2023-02-12T16:08:15;8.90;99.90
19522;DHT22;9905;52.126;5.596;2023-02-12T16:10:43;8.90;99.90
19522;DHT22;9905;52.126;5.596;2023-02-12T16:13:15;8.90;99.90
19522;DHT22;9905;52.126;5.596;2023-02-12T16:15:42;8.90;99.90
19522;DHT22;9905;52.126;5.596;2023-02-12T16:18:22;8.90;99.90
19522;DHT22;9905;52.126;5.596;2023-02-12T16:21:01;8.90;99.90
19522;DHT22;9905;52.126;5.596;2023-02-12T16:23:30;8.90;99.90
19522;DHT22;9905;52.126;5.596;2023-02-12T16:25:57;8.90;99.90
19522;DHT22;9905;52.126;5.596;2023-02-12T16:28:26;8.80;99.90
19522;DHT22;9905;52.126;5.596;2023-02-12T16:31:06;8.90;99.90
19522;DHT22;9905;52.126;5.596;2023-02-12T16:33:41;8.80;99.90
19522;DHT22;9905;52.126;5.596;2023-02-12T16:36:13;8.80;99.90
19522;DHT22;9905;52.126;5.596;2023-02-12T16:38:43;8.80;99.90
19522;DHT22;9905;52.126;5.596;2023-02-12T16:41:19;8.80;99.90
19522;DHT22;9905;52.126;5.596;2023-02-12T16:43:49;8.80;99.90
19522;DHT22;9905;52.126;5.596;2023-02-12T16:46:17;8.70;99.90
19522;DHT22;9905;52.126;5.596;2023-02-12T16:48:47;8.70;99.90
19522;DHT22;9905;52.126;5.596;2023-02-12T16:51:22;8.70;99.90
19522;DHT22;9905;52.126;5.596;2023-02-12T16:53:49;8.70;99.90